TimeEST,TemperatureF,Dew PointF,Humidity,Sea Level PressureIn,VisibilityMPH,Wind Direction,Wind SpeedMPH,Gust SpeedMPH,PrecipitationIn,Events,Conditions,WindDirDegrees,DateUTC
12:56 AM,41.0,30.9,67,30.16,10.0,North,5.8,-,N/A,,Scattered Clouds,360,2013-01-26 05:56:00
1:56 AM,39.9,30.0,68,30.15,10.0,Calm,Calm,-,N/A,,Partly Cloudy,0,2013-01-26 06:56:00
2:56 AM,37.9,30.0,73,30.14,10.0,NNW,4.6,-,N/A,,Partly Cloudy,340,2013-01-26 07:56:00
3:56 AM,37.0,30.0,76,30.13,10.0,Calm,Calm,-,N/A,,Scattered Clouds,0,2013-01-26 08:56:00
4:56 AM,37.0,28.9,73,30.14,10.0,Calm,Calm,-,N/A,,Scattered Clouds,0,2013-01-26 09:56:00
5:56 AM,39.9,28.9,65,30.14,10.0,Calm,Calm,-,N/A,,Mostly Cloudy,0,2013-01-26 10:56:00
6:56 AM,39.0,30.0,70,30.15,9.0,Calm,Calm,-,N/A,,Mostly Cloudy,0,2013-01-26 11:56:00
7:56 AM,42.1,28.0,58,30.17,10.0,Calm,Calm,-,N/A,,Mostly Cloudy,0,2013-01-26 12:56:00
8:56 AM,44.1,27.0,51,30.21,10.0,North,6.9,-,N/A,,Overcast,350,2013-01-26 13:56:00
9:56 AM,46.9,30.0,52,30.22,10.0,NW,5.8,-,N/A,,Overcast,310,2013-01-26 14:56:00
10:56 AM,53.1,35.1,50,30.22,10.0,NNW,5.8,-,N/A,,Mostly Cloudy,330,2013-01-26 15:56:00
11:56 AM,55.9,39.0,53,30.22,10.0,WNW,6.9,-,N/A,,Mostly Cloudy,300,2013-01-26 16:56:00
12:56 PM,57.9,37.9,47,30.19,10.0,NNW,10.4,-,N/A,,Mostly Cloudy,340,2013-01-26 17:56:00
1:56 PM,57.9,34.0,41,30.19,10.0,NNE,8.1,-,N/A,,Scattered Clouds,30,2013-01-26 18:56:00
2:56 PM,60.1,32.0,35,30.19,10.0,NNE,6.9,-,N/A,,Mostly Cloudy,20,2013-01-26 19:56:00
3:56 PM,61.0,30.0,31,30.19,10.0,NNE,6.9,-,N/A,,Mostly Cloudy,20,2013-01-26 20:56:00
4:56 PM,57.9,28.9,33,30.22,10.0,NNE,6.9,-,N/A,,Scattered Clouds,20,2013-01-26 21:56:00
5:56 PM,52.0,30.0,43,30.24,10.0,NNE,4.6,-,N/A,,Partly Cloudy,20,2013-01-26 22:56:00
6:56 PM,48.0,41.0,77,30.25,10.0,East,5.8,-,N/A,,Clear,90,2013-01-26 23:56:00
7:56 PM,46.0,39.0,76,30.28,10.0,ENE,8.1,-,N/A,,Clear,70,2013-01-27 00:56:00
8:56 PM,45.0,37.9,76,30.29,10.0,ENE,8.1,-,N/A,,Clear,60,2013-01-27 01:56:00
9:56 PM,44.1,37.9,79,30.30,10.0,ENE,5.8,-,N/A,,Clear,70,2013-01-27 02:56:00
10:56 PM,43.0,36.0,76,30.32,10.0,NE,8.1,-,N/A,,Clear,50,2013-01-27 03:56:00
11:56 PM,41.0,34.0,76,30.33,10.0,ENE,6.9,-,N/A,,Partly Cloudy,60,2013-01-27 04:56:00